createdAt,value
2024-02-03T00:01:17.427Z,3.67
2024-02-03T00:03:44.917Z,3.80
2024-02-03T00:06:12.537Z,3.83
2024-02-03T00:08:42.615Z,3.30
2024-02-03T00:11:10.851Z,3.33
2024-02-03T00:13:39.776Z,3.55
2024-02-03T00:16:08.643Z,3.75
2024-02-03T00:18:36.110Z,3.70
2024-02-03T00:21:05.981Z,4.07
2024-02-03T00:23:33.246Z,4.15
2024-02-03T00:26:00.415Z,4.28
2024-02-03T00:28:27.597Z,4.13
2024-02-03T00:30:54.880Z,4.20
2024-02-03T00:33:22.293Z,4.57
2024-02-03T00:35:49.516Z,4.13
2024-02-03T00:38:17.207Z,4.55
2024-02-03T00:40:44.443Z,4.25
2024-02-03T00:43:16.254Z,4.55
2024-02-03T00:45:49.270Z,4.07
2024-02-03T00:48:17.632Z,3.88
2024-02-03T00:50:45.228Z,4.35
2024-02-03T00:53:12.437Z,4.15
2024-02-03T00:55:39.722Z,4.10
2024-02-03T00:58:10.384Z,4.27
2024-02-03T01:00:38.669Z,5.05
2024-02-03T01:03:06.895Z,4.80
2024-02-03T01:05:34.355Z,4.53
2024-02-03T01:08:01.491Z,5.00
2024-02-03T01:10:28.950Z,4.33
2024-02-03T01:12:56.373Z,4.45
2024-02-03T01:15:23.853Z,4.95
2024-02-03T01:17:51.157Z,4.72
2024-02-03T01:20:18.473Z,5.03
2024-02-03T01:22:47.910Z,4.40
2024-02-03T01:25:15.408Z,4.80
2024-02-03T01:27:43.037Z,4.40
2024-02-03T01:30:11.092Z,4.68
2024-02-03T01:32:38.415Z,5.10
2024-02-03T01:35:08.846Z,4.17
2024-02-03T01:37:36.429Z,5.05
2024-02-03T01:40:06.365Z,5.53
2024-02-03T01:42:33.503Z,4.80
2024-02-03T01:45:00.704Z,4.50
2024-02-03T01:47:28.382Z,4.70
2024-02-03T01:49:55.789Z,5.15
2024-02-03T01:52:24.443Z,5.07
2024-02-03T01:54:51.660Z,4.78
2024-02-03T01:57:24.516Z,4.35
2024-02-03T01:59:52.733Z,5.23
2024-02-03T02:02:19.988Z,4.80
2024-02-03T02:04:47.236Z,5.82
2024-02-03T02:07:14.534Z,4.88
2024-02-03T02:09:41.911Z,5.22
2024-02-03T02:12:12.176Z,4.60
2024-02-03T02:14:39.717Z,5.13
2024-02-03T02:17:06.817Z,4.45
2024-02-03T02:19:34.123Z,5.57
2024-02-03T02:22:01.491Z,4.93
2024-02-03T02:24:28.782Z,4.90
2024-02-03T02:26:55.895Z,5.35
2024-02-03T02:29:23.435Z,4.80
2024-02-03T02:31:50.739Z,5.03
2024-02-03T02:34:18.126Z,4.55
2024-02-03T02:36:46.004Z,5.03
2024-02-03T02:39:16.401Z,5.20
2024-02-03T02:41:44.725Z,5.32
2024-02-03T02:44:11.874Z,5.18
2024-02-03T02:46:40.170Z,5.25
2024-02-03T02:49:09.276Z,5.77
2024-02-03T02:51:36.694Z,4.90
2024-02-03T02:54:03.919Z,5.60
2024-02-03T02:56:31.084Z,5.20
2024-02-03T02:58:59.204Z,5.55
2024-02-03T03:01:26.613Z,5.17
2024-02-03T03:03:55.807Z,4.75
2024-02-03T03:06:23.339Z,6.13
2024-02-03T03:08:50.684Z,5.68
2024-02-03T03:11:17.889Z,5.75
2024-02-03T03:13:45.075Z,5.13
2024-02-03T03:16:12.302Z,4.75
2024-02-03T03:18:40.201Z,4.50
2024-02-03T03:21:09.084Z,5.93
2024-02-03T03:23:36.427Z,5.25
2024-02-03T03:26:03.718Z,4.93
2024-02-03T03:28:30.882Z,5.47
2024-02-03T03:30:58.145Z,4.95
2024-02-03T03:33:25.311Z,4.75
2024-02-03T03:35:52.835Z,4.90
2024-02-03T03:38:20.305Z,5.50
2024-02-03T03:40:47.441Z,4.30
2024-02-03T03:43:14.523Z,4.80
2024-02-03T03:45:41.820Z,5.57
2024-02-03T03:48:09.123Z,4.60
2024-02-03T03:50:36.393Z,4.10
2024-02-03T03:53:03.520Z,5.32
2024-02-03T03:55:30.637Z,5.25
2024-02-03T03:57:57.957Z,4.50
2024-02-03T04:00:25.261Z,5.68
2024-02-03T04:02:52.388Z,5.53
2024-02-03T04:05:20.193Z,4.65
2024-02-03T04:07:47.801Z,5.28
2024-02-03T04:10:15.249Z,4.57
2024-02-03T04:12:42.433Z,5.20
2024-02-03T04:15:09.983Z,4.27
2024-02-03T04:17:38.265Z,4.65
2024-02-03T04:20:07.763Z,5.05
2024-02-03T04:22:35.004Z,4.68
2024-02-03T04:25:02.870Z,4.75
2024-02-03T04:27:29.945Z,4.90
2024-02-03T04:29:57.009Z,4.95
2024-02-03T04:32:24.054Z,5.20
2024-02-03T04:34:51.263Z,4.70
2024-02-03T04:37:18.395Z,3.95
2024-02-03T04:39:45.772Z,4.50
2024-02-03T04:42:14.289Z,4.95
2024-02-03T04:44:43.677Z,4.35
2024-02-03T04:47:10.938Z,4.95
2024-02-03T04:49:39.045Z,4.88
2024-02-03T04:52:07.057Z,5.20
2024-02-03T04:54:34.273Z,4.32
2024-02-03T04:57:01.780Z,4.68
2024-02-03T04:59:29.282Z,4.57
2024-02-03T05:01:56.704Z,4.28
2024-02-03T05:04:24.061Z,4.63
2024-02-03T05:06:52.162Z,4.47
2024-02-03T05:09:22.004Z,5.13
2024-02-03T05:11:49.270Z,5.20
2024-02-03T05:14:16.636Z,5.20
2024-02-03T05:16:43.671Z,4.93
2024-02-03T05:19:13.317Z,4.68
2024-02-03T05:21:45.902Z,4.50
2024-02-03T05:24:13.315Z,4.32
2024-02-03T05:26:40.617Z,4.80
2024-02-03T05:29:08.231Z,4.60
2024-02-03T05:31:35.292Z,5.05
2024-02-03T05:34:02.982Z,4.55
2024-02-03T05:36:31.626Z,4.57
2024-02-03T05:38:58.927Z,4.60
2024-02-03T05:41:26.020Z,4.10
2024-02-03T05:43:53.182Z,4.63
2024-02-03T05:46:20.236Z,4.85
2024-02-03T05:48:47.497Z,4.05
2024-02-03T05:51:15.658Z,4.55
2024-02-03T05:53:45.463Z,4.10
2024-02-03T05:56:12.584Z,4.10
2024-02-03T05:58:39.764Z,5.20
2024-02-03T06:01:07.097Z,4.32
2024-02-03T06:03:34.432Z,4.63
2024-02-03T06:06:19.134Z,4.13
2024-02-03T06:08:52.254Z,4.65
2024-02-03T06:11:19.349Z,4.72
2024-02-03T06:13:46.781Z,4.05
2024-02-03T06:16:14.088Z,4.60
2024-02-03T06:18:41.519Z,4.00
2024-02-03T06:21:08.870Z,5.38
2024-02-03T06:23:36.157Z,4.50
2024-02-03T06:26:03.323Z,4.22
2024-02-03T06:28:30.810Z,4.35
2024-02-03T06:30:59.012Z,3.97
2024-02-03T06:33:26.463Z,3.97
2024-02-03T06:35:53.928Z,4.18
2024-02-03T06:38:21.087Z,4.82
2024-02-03T06:40:48.169Z,4.05
2024-02-03T06:43:15.787Z,4.50
2024-02-03T06:45:44.992Z,4.57
2024-02-03T06:48:12.353Z,4.55
2024-02-03T06:50:39.541Z,4.82
2024-02-03T06:53:07.128Z,5.10
2024-02-03T06:55:34.323Z,5.40
2024-02-03T06:58:01.654Z,4.78
2024-02-03T07:00:28.748Z,4.85
2024-02-03T07:02:55.853Z,4.88
2024-02-03T07:05:23.636Z,5.47
2024-02-03T07:07:50.879Z,4.47
2024-02-03T07:10:18.061Z,4.38
2024-02-03T07:12:45.447Z,4.88
2024-02-03T07:15:12.638Z,4.63
2024-02-03T07:17:39.948Z,4.93
2024-02-03T07:20:07.819Z,4.87
2024-02-03T07:22:35.193Z,4.90
2024-02-03T07:25:03.929Z,5.40
2024-02-03T07:27:32.104Z,4.53
2024-02-03T07:29:59.473Z,5.30
2024-02-03T07:32:26.908Z,4.47
2024-02-03T07:34:54.182Z,4.95
2024-02-03T07:37:21.876Z,5.35
2024-02-03T07:39:49.415Z,5.10
2024-02-03T07:42:16.946Z,4.93
2024-02-03T07:44:45.024Z,5.10
2024-02-03T07:47:13.992Z,4.22
2024-02-03T07:49:41.314Z,4.18
2024-02-03T07:52:08.732Z,4.88
2024-02-03T07:54:36.341Z,5.35
2024-02-03T07:57:04.826Z,4.07
2024-02-03T07:59:32.019Z,4.57
2024-02-03T08:01:59.110Z,4.10
2024-02-03T08:04:26.248Z,4.40
2024-02-03T08:06:53.653Z,4.03
2024-02-03T08:09:20.920Z,4.33
2024-02-03T08:11:48.606Z,4.35
2024-02-03T08:14:15.743Z,3.80
2024-02-03T08:16:42.964Z,4.10
2024-02-03T08:19:10.094Z,3.90
2024-02-03T08:21:38.356Z,3.60
2024-02-03T08:24:07.647Z,3.78
2024-02-03T08:26:35.145Z,4.50
2024-02-03T08:29:02.268Z,4.07
2024-02-03T08:31:29.390Z,4.03
2024-02-03T08:33:56.729Z,3.90
2024-02-03T08:36:27.117Z,4.03
2024-02-03T08:38:55.247Z,4.40
2024-02-03T08:41:22.628Z,4.57
2024-02-03T08:43:49.777Z,5.10
2024-02-03T08:46:17.568Z,4.73
2024-02-03T08:48:44.919Z,4.18
2024-02-03T08:51:17.415Z,4.30
2024-02-03T08:53:45.879Z,4.65
2024-02-03T08:56:13.222Z,4.65
2024-02-03T08:58:40.720Z,4.30
2024-02-03T09:01:08.071Z,5.68
2024-02-03T09:03:36.334Z,3.85
2024-02-03T09:06:03.721Z,4.35
2024-02-03T09:08:32.070Z,4.25
2024-02-03T09:10:59.526Z,4.90
2024-02-03T09:13:27.186Z,4.85
2024-02-03T09:15:54.387Z,4.50
2024-02-03T09:18:21.822Z,4.13
2024-02-03T09:20:49.128Z,4.40
2024-02-03T09:23:16.379Z,5.17
2024-02-03T09:25:43.513Z,5.03
2024-02-03T09:28:10.644Z,5.00
2024-02-03T09:30:37.865Z,4.90
2024-02-03T09:33:05.537Z,5.20
2024-02-03T09:35:32.762Z,4.37
2024-02-03T09:38:00.402Z,4.80
2024-02-03T09:40:28.125Z,4.78
2024-02-03T09:42:56.706Z,5.85
2024-02-03T09:45:24.331Z,4.25
2024-02-03T09:47:51.849Z,4.80
2024-02-03T09:50:19.205Z,4.57
2024-02-03T09:52:46.786Z,4.65
2024-02-03T09:55:13.975Z,4.95
2024-02-03T09:57:41.311Z,5.20
2024-02-03T10:00:12.522Z,4.23
2024-02-03T10:02:40.977Z,4.63
2024-02-03T10:05:08.940Z,5.05
2024-02-03T10:07:36.389Z,5.35
2024-02-03T10:12:37.998Z,4.90
2024-02-03T10:15:08.245Z,4.88
2024-02-03T10:17:36.590Z,4.82
2024-02-03T10:20:08.252Z,4.65
2024-02-03T10:22:39.012Z,6.03
2024-02-03T10:25:13.020Z,4.87
2024-02-03T10:27:42.750Z,5.13
2024-02-03T10:30:10.764Z,4.53
2024-02-03T10:32:37.975Z,4.00
2024-02-03T10:35:05.597Z,4.82
2024-02-03T10:37:32.794Z,4.37
2024-02-03T10:40:00.632Z,4.65
2024-02-03T10:42:35.480Z,4.30
2024-02-03T10:45:07.159Z,4.07
2024-02-03T10:47:38.354Z,4.25
2024-02-03T10:50:11.380Z,4.27
2024-02-03T10:52:41.389Z,4.35
2024-02-03T10:55:13.042Z,4.30
2024-02-03T10:57:43.177Z,4.13
2024-02-03T11:00:11.899Z,4.00
2024-02-03T11:02:39.162Z,4.30
2024-02-03T11:05:11.148Z,4.63
2024-02-03T11:07:38.437Z,4.00
2024-02-03T11:10:06.636Z,4.35
2024-02-03T11:12:37.164Z,4.13
2024-02-03T11:15:18.433Z,3.83
2024-02-03T11:17:47.191Z,3.80
2024-02-03T11:20:32.836Z,3.97
2024-02-03T11:23:00.904Z,4.55
2024-02-03T11:25:29.065Z,4.35
2024-02-03T11:27:56.294Z,4.37
2024-02-03T11:30:26.432Z,4.13
2024-02-03T11:32:56.881Z,4.80
2024-02-03T11:35:26.209Z,5.03
2024-02-03T11:37:53.256Z,4.63
2024-02-03T11:40:20.299Z,4.30
2024-02-03T11:42:48.766Z,6.63
2024-02-03T11:45:25.189Z,4.82
2024-02-03T11:47:52.481Z,4.05
2024-02-03T11:50:20.041Z,3.75
2024-02-03T11:52:47.586Z,4.30
2024-02-03T11:55:15.302Z,3.95
2024-02-03T11:57:43.672Z,4.95
2024-02-03T12:00:12.426Z,4.97
2024-02-03T12:02:39.592Z,4.90
2024-02-03T12:05:08.956Z,5.57
2024-02-03T12:07:39.227Z,5.05
2024-02-03T12:10:10.176Z,5.88
2024-02-03T12:12:37.984Z,5.20
2024-02-03T12:15:10.243Z,5.90
2024-02-03T12:17:37.562Z,4.83
2024-02-03T12:20:06.918Z,5.55
2024-02-03T12:22:35.460Z,5.32
2024-02-03T12:25:02.909Z,5.45
2024-02-03T12:27:30.267Z,4.65
2024-02-03T12:29:58.586Z,5.40
2024-02-03T12:32:25.670Z,5.35
2024-02-03T12:34:52.861Z,5.40
2024-02-03T12:37:20.212Z,5.15
2024-02-03T12:39:47.583Z,5.63
2024-02-03T12:42:14.943Z,4.87
2024-02-03T12:44:42.032Z,5.25
2024-02-03T12:47:09.249Z,5.05
2024-02-03T12:49:36.696Z,4.47
2024-02-03T12:52:06.030Z,5.35
2024-02-03T12:54:33.202Z,5.03
2024-02-03T12:57:00.653Z,6.07
2024-02-03T12:59:27.670Z,5.13
2024-02-03T13:01:54.888Z,4.93
2024-02-03T13:04:22.000Z,5.05
2024-02-03T13:06:49.349Z,5.40
2024-02-03T13:09:16.705Z,4.75
2024-02-03T13:11:44.027Z,5.03
2024-02-03T13:14:11.058Z,4.88
2024-02-03T13:16:38.471Z,5.18
2024-02-03T13:19:08.511Z,5.27
2024-02-03T13:21:37.183Z,4.90
2024-02-03T13:24:04.923Z,5.85
2024-02-03T13:26:32.308Z,4.88
2024-02-03T13:29:00.171Z,5.68
2024-02-03T13:31:27.375Z,5.13
2024-02-03T13:33:54.794Z,5.22
2024-02-03T13:36:22.094Z,5.13
2024-02-03T13:38:49.586Z,5.47
2024-02-03T13:41:16.682Z,5.05
2024-02-03T13:43:43.929Z,4.60
2024-02-03T13:46:11.361Z,4.97
2024-02-03T13:48:38.652Z,5.85
2024-02-03T13:51:06.727Z,4.07
2024-02-03T13:53:33.832Z,5.10
2024-02-03T13:56:05.877Z,4.77
2024-02-03T13:58:33.358Z,4.95
2024-02-03T14:01:01.489Z,5.50
2024-02-03T14:03:29.364Z,4.43
2024-02-03T14:05:56.499Z,5.47
2024-02-03T14:08:24.249Z,5.10
2024-02-03T14:10:51.388Z,5.20
2024-02-03T14:13:19.397Z,4.88
2024-02-03T14:15:47.705Z,4.70
2024-02-03T14:18:14.998Z,4.90
2024-02-03T14:20:42.171Z,4.93
2024-02-03T14:23:09.334Z,5.97
2024-02-03T14:25:38.031Z,5.18
2024-02-03T14:28:08.573Z,4.03
2024-02-03T14:30:35.890Z,4.55
2024-02-03T14:33:07.517Z,3.63
2024-02-03T14:35:35.295Z,4.00
2024-02-03T14:38:02.686Z,4.10
2024-02-03T14:40:29.887Z,4.63
2024-02-03T14:42:57.093Z,5.03
2024-02-03T14:45:24.263Z,5.27
2024-02-03T14:47:51.376Z,5.00
2024-02-03T14:50:18.626Z,5.13
2024-02-03T14:52:49.867Z,4.82
2024-02-03T14:55:17.289Z,6.68
2024-02-03T14:57:44.403Z,6.33
2024-02-03T15:00:12.890Z,4.90
2024-02-03T15:02:40.015Z,5.00
2024-02-03T15:05:08.620Z,4.80
2024-02-03T15:07:37.106Z,6.43
2024-02-03T15:10:05.732Z,5.27
2024-02-03T15:12:36.016Z,5.03
2024-02-03T15:15:07.922Z,5.22
2024-02-03T15:17:35.114Z,4.20
2024-02-03T15:20:02.451Z,5.35
2024-02-03T15:22:29.883Z,4.80
2024-02-03T15:24:59.928Z,5.50
2024-02-03T15:27:27.262Z,5.22
2024-02-03T15:29:54.480Z,4.30
2024-02-03T15:32:21.915Z,5.00
2024-02-03T15:34:49.396Z,5.23
2024-02-03T15:37:17.234Z,4.72
2024-02-03T15:39:44.721Z,5.15
2024-02-03T15:42:12.220Z,5.43
2024-02-03T15:44:45.536Z,5.53
2024-02-03T15:47:14.106Z,5.03
2024-02-03T15:49:42.538Z,4.68
2024-02-03T15:52:09.931Z,4.90
2024-02-03T15:54:37.249Z,4.80
2024-02-03T15:57:04.791Z,5.30
2024-02-03T15:59:32.529Z,5.40
2024-02-03T16:02:00.114Z,4.82
2024-02-03T16:04:28.531Z,4.63
2024-02-03T16:06:56.322Z,5.50
2024-02-03T16:09:25.157Z,5.25
2024-02-03T16:11:52.548Z,5.53
2024-02-03T16:14:23.268Z,6.25
2024-02-03T16:16:51.595Z,5.13
2024-02-03T16:19:19.264Z,5.85
2024-02-03T16:21:49.633Z,5.85
2024-02-03T16:24:17.217Z,5.00
2024-02-03T16:26:44.658Z,5.53
2024-02-03T16:29:11.866Z,6.13
2024-02-03T16:31:39.098Z,5.28
2024-02-03T16:34:06.678Z,5.93
2024-02-03T16:36:36.917Z,5.50
2024-02-03T16:39:07.362Z,5.90
2024-02-03T16:41:34.436Z,6.32
2024-02-03T16:44:01.628Z,5.47
2024-02-03T16:46:29.157Z,5.88
2024-02-03T16:48:59.441Z,5.13
2024-02-03T16:51:29.236Z,5.82
2024-02-03T16:53:57.174Z,5.70
2024-02-03T16:56:25.124Z,5.68
2024-02-03T16:58:52.623Z,6.80
2024-02-03T17:01:19.970Z,4.93
2024-02-03T17:03:48.668Z,5.55
2024-02-03T17:06:16.116Z,6.93
2024-02-03T17:08:44.029Z,5.47
2024-02-03T17:11:11.148Z,6.65
2024-02-03T17:13:38.308Z,5.73
2024-02-03T17:16:07.258Z,6.00
2024-02-03T17:18:34.586Z,5.90
2024-02-03T17:21:03.001Z,6.43
2024-02-03T17:23:30.495Z,7.78
2024-02-03T17:25:57.638Z,6.37
2024-02-03T17:28:24.744Z,6.10
2024-02-03T17:30:52.060Z,6.05
2024-02-03T17:33:19.602Z,7.00
2024-02-03T17:35:46.785Z,6.95
2024-02-03T17:38:13.888Z,6.93
2024-02-03T17:40:41.188Z,6.35
2024-02-03T17:43:08.510Z,6.30
2024-02-03T17:45:35.716Z,6.22
2024-02-03T17:48:02.967Z,6.03
2024-02-03T17:50:31.541Z,5.87
2024-02-03T17:52:59.980Z,6.20
2024-02-03T17:55:28.117Z,7.35
2024-02-03T17:57:55.562Z,6.78
2024-02-03T18:00:22.842Z,5.90
2024-02-03T18:02:50.139Z,5.83
2024-02-03T18:05:19.538Z,5.82
2024-02-03T18:07:47.313Z,6.38
2024-02-03T18:10:15.594Z,5.10
2024-02-03T18:12:43.609Z,6.00
2024-02-03T18:15:11.142Z,5.30
2024-02-03T18:17:38.505Z,5.45
2024-02-03T18:20:06.614Z,6.45
2024-02-03T18:22:34.879Z,5.72
2024-02-03T18:25:03.220Z,6.43
2024-02-03T18:27:30.434Z,5.60
2024-02-03T18:29:57.752Z,5.65
2024-02-03T18:32:25.068Z,5.70
2024-02-03T18:34:52.230Z,5.43
2024-02-03T18:37:19.822Z,5.15
2024-02-03T18:39:53.702Z,5.80
2024-02-03T18:42:24.529Z,6.00
2024-02-03T18:44:51.898Z,5.43
2024-02-03T18:47:19.054Z,5.75
2024-02-03T18:49:46.374Z,6.38
2024-02-03T18:52:13.783Z,6.87
2024-02-03T18:54:46.020Z,5.82
2024-02-03T18:57:13.302Z,4.93
2024-02-03T18:59:40.381Z,5.78
2024-02-03T19:02:08.098Z,6.07
2024-02-03T19:04:35.386Z,6.30
2024-02-03T19:07:02.840Z,6.38
2024-02-03T19:09:32.950Z,5.93
2024-02-03T19:12:08.571Z,6.00
2024-02-03T19:14:38.938Z,5.15
2024-02-03T19:17:09.957Z,5.50
2024-02-03T19:19:38.805Z,5.93
2024-02-03T19:22:07.306Z,5.57
2024-02-03T19:24:38.229Z,5.53
2024-02-03T19:27:06.598Z,5.80
2024-02-03T19:29:42.610Z,5.30
2024-02-03T19:32:12.016Z,5.28
2024-02-03T19:35:13.463Z,5.28
2024-02-03T19:37:41.225Z,5.53
2024-02-03T19:40:10.817Z,5.60
2024-02-03T19:42:38.905Z,5.70
2024-02-03T19:45:07.627Z,4.78
2024-02-03T19:47:36.178Z,5.47
2024-02-03T19:50:06.357Z,4.80
2024-02-03T19:52:34.121Z,5.78
2024-02-03T19:55:01.596Z,5.47
2024-02-03T19:57:28.768Z,5.47
2024-02-03T19:59:56.218Z,6.57
2024-02-03T20:02:23.592Z,5.95
2024-02-03T20:04:51.990Z,5.75
2024-02-03T20:07:19.331Z,6.23
2024-02-03T20:09:46.693Z,5.78
2024-02-03T20:12:14.028Z,5.97
2024-02-03T20:14:42.893Z,5.20
2024-02-03T20:17:10.155Z,5.53
2024-02-03T20:19:37.402Z,6.03
2024-02-03T20:22:04.777Z,5.45
2024-02-03T20:24:31.976Z,5.97
2024-02-03T20:26:59.226Z,5.68
2024-02-03T20:29:26.642Z,6.47
2024-02-03T20:31:54.400Z,6.27
2024-02-03T20:34:23.897Z,6.03
2024-02-03T20:36:51.307Z,6.05
2024-02-03T20:39:19.418Z,5.47
2024-02-03T20:41:46.613Z,6.30
2024-02-03T20:44:14.733Z,6.27
2024-02-03T20:46:44.492Z,6.00
2024-02-03T20:49:12.282Z,5.97
2024-02-03T20:51:42.976Z,6.40
2024-02-03T20:54:10.216Z,6.57
2024-02-03T20:56:38.793Z,6.50
2024-02-03T20:59:06.993Z,5.88
2024-02-03T21:01:35.172Z,5.90
2024-02-03T21:04:02.635Z,6.40
2024-02-03T21:06:30.233Z,6.85
2024-02-03T21:08:57.845Z,6.27
2024-02-03T21:11:28.911Z,6.53
2024-02-03T21:13:56.567Z,6.80
2024-02-03T21:16:23.993Z,6.03
2024-02-03T21:18:51.493Z,5.95
2024-02-03T21:21:18.905Z,6.30
2024-02-03T21:23:46.292Z,6.50
2024-02-03T21:26:15.852Z,7.78
2024-02-03T21:28:43.116Z,6.25
2024-02-03T21:31:10.207Z,7.43
2024-02-03T21:33:37.689Z,5.97
2024-02-03T21:36:06.449Z,6.22
2024-02-03T21:38:35.820Z,5.90
2024-02-03T21:41:03.037Z,5.97
2024-02-03T21:43:30.171Z,6.72
2024-02-03T21:45:58.166Z,6.07
2024-02-03T21:48:25.705Z,6.50
2024-02-03T21:50:53.437Z,5.80
2024-02-03T21:53:20.756Z,5.65
2024-02-03T21:55:47.866Z,5.43
2024-02-03T21:58:16.690Z,6.43
2024-02-03T22:00:44.100Z,5.85
2024-02-03T22:03:11.353Z,6.40
2024-02-03T22:05:38.598Z,5.88
2024-02-03T22:08:07.638Z,5.82
2024-02-03T22:10:35.137Z,6.03
2024-02-03T22:13:02.339Z,5.53
2024-02-03T22:15:29.520Z,6.10
2024-02-03T22:17:59.255Z,6.00
2024-02-03T22:20:27.408Z,6.13
2024-02-03T22:22:54.733Z,5.97
2024-02-03T22:25:22.304Z,6.05
2024-02-03T22:27:49.656Z,5.13
2024-02-03T22:30:18.070Z,5.57
2024-02-03T22:32:45.667Z,6.25
2024-02-03T22:35:13.091Z,5.63
2024-02-03T22:37:40.628Z,5.25
2024-02-03T22:40:08.344Z,5.43
2024-02-03T22:42:35.501Z,5.97
2024-02-03T22:45:02.626Z,5.88
2024-02-03T22:47:29.814Z,5.83
2024-02-03T22:49:57.233Z,5.70
2024-02-03T22:52:26.220Z,6.18
2024-02-03T22:54:53.536Z,4.78
2024-02-03T22:57:20.794Z,5.38
2024-02-03T22:59:48.249Z,5.20
2024-02-03T23:02:17.202Z,5.68
2024-02-03T23:04:44.473Z,5.30
2024-02-03T23:07:12.361Z,6.28
2024-02-03T23:09:39.610Z,5.28
2024-02-03T23:12:07.340Z,5.87
2024-02-03T23:14:34.554Z,6.32
2024-02-03T23:17:02.599Z,5.47
2024-02-03T23:19:30.098Z,5.18
2024-02-03T23:21:58.018Z,5.38
2024-02-03T23:24:25.551Z,5.40
2024-02-03T23:26:52.930Z,5.88
2024-02-03T23:29:20.110Z,5.78
2024-02-03T23:31:48.785Z,5.78
2024-02-03T23:34:17.131Z,6.18
2024-02-03T23:36:45.363Z,5.57
2024-02-03T23:39:13.464Z,5.60
2024-02-03T23:41:40.598Z,6.38
2024-02-03T23:44:08.186Z,5.55
2024-02-03T23:46:35.353Z,5.80
2024-02-03T23:49:02.822Z,6.27
2024-02-03T23:51:30.120Z,5.53
2024-02-03T23:53:59.712Z,5.45
2024-02-03T23:56:26.812Z,5.05
2024-02-03T23:58:53.876Z,5.53
